sensor_id;sensor_type;location;lat;lon;timestamp;pressure;altitude;pressure_sealevel;temperature;humidity
2711;BME280;20721;47.402;8.550;2023-02-22T00:00:09;95994;;;9.55;51.92
2711;BME280;20721;47.402;8.550;2023-02-22T00:01:07;95991;;;9.53;51.96
2711;BME280;20721;47.402;8.550;2023-02-22T00:03:02;95989;;;9.51;52.11
2711;BME280;20721;47.402;8.550;2023-02-22T00:04:03;95987;;;9.50;52.01
2711;BME280;20721;47.402;8.550;2023-02-22T00:05:02;95989;;;9.47;52.18
2711;BME280;20721;47.402;8.550;2023-02-22T00:06:04;95988;;;9.45;52.14
2711;BME280;20721;47.402;8.550;2023-02-22T00:08:02;95991;;;9.41;52.18
2711;BME280;20721;47.402;8.550;2023-02-22T00:09:02;95995;;;9.38;52.26
2711;BME280;20721;47.402;8.550;2023-02-22T00:10:02;95991;;;9.35;52.31
2711;BME280;20721;47.402;8.550;2023-02-22T00:11:03;95993;;;9.32;52.42
2711;BME280;20721;47.402;8.550;2023-02-22T00:12:02;95995;;;9.29;52.58
2711;BME280;20721;47.402;8.550;2023-02-22T00:13:03;95992;;;9.28;52.54
2711;BME280;20721;47.402;8.550;2023-02-22T00:14:02;95993;;;9.25;52.42
2711;BME280;20721;47.402;8.550;2023-02-22T00:15:02;95995;;;9.22;52.49
2711;BME280;20721;47.402;8.550;2023-02-22T00:16:02;95995;;;9.19;52.53
2711;BME280;20721;47.402;8.550;2023-02-22T00:17:02;95994;;;9.14;52.74
2711;BME280;20721;47.402;8.550;2023-02-22T00:19:02;95992;;;9.13;52.79
2711;BME280;20721;47.402;8.550;2023-02-22T00:20:05;95990;;;9.12;52.88
2711;BME280;20721;47.402;8.550;2023-02-22T00:21:02;95993;;;9.13;52.79
2711;BME280;20721;47.402;8.550;2023-02-22T00:22:02;95990;;;9.12;52.86
2711;BME280;20721;47.402;8.550;2023-02-22T00:23:07;95990;;;9.09;52.89
2711;BME280;20721;47.402;8.550;2023-02-22T00:24:12;95992;;;9.07;52.95
2711;BME280;20721;47.402;8.550;2023-02-22T00:25:02;95993;;;9.04;53.03
2711;BME280;20721;47.402;8.550;2023-02-22T00:26:02;95993;;;9.02;53.11
2711;BME280;20721;47.402;8.550;2023-02-22T00:27:02;95992;;;8.99;53.23
2711;BME280;20721;47.402;8.550;2023-02-22T00:28:03;95989;;;8.96;53.27
2711;BME280;20721;47.402;8.550;2023-02-22T00:29:02;95987;;;8.93;53.43
2711;BME280;20721;47.402;8.550;2023-02-22T00:30:03;95989;;;8.89;53.38
2711;BME280;20721;47.402;8.550;2023-02-22T00:31:04;95992;;;8.87;53.49
2711;BME280;20721;47.402;8.550;2023-02-22T00:32:02;95990;;;8.85;53.64
2711;BME280;20721;47.402;8.550;2023-02-22T00:33:02;95987;;;8.84;53.69
2711;BME280;20721;47.402;8.550;2023-02-22T00:34:02;95990;;;8.86;53.71
2711;BME280;20721;47.402;8.550;2023-02-22T00:36:02;95988;;;8.88;53.79
2711;BME280;20721;47.402;8.550;2023-02-22T00:37:03;95985;;;8.89;53.71
2711;BME280;20721;47.402;8.550;2023-02-22T00:38:02;95985;;;8.91;53.74
2711;BME280;20721;47.402;8.550;2023-02-22T00:41:02;95987;;;8.92;53.69
2711;BME280;20721;47.402;8.550;2023-02-22T00:42:02;95990;;;8.91;53.55
2711;BME280;20721;47.402;8.550;2023-02-22T00:43:03;95985;;;8.89;53.61
2711;BME280;20721;47.402;8.550;2023-02-22T00:45:03;95989;;;8.88;53.70
2711;BME280;20721;47.402;8.550;2023-02-22T00:46:02;95985;;;8.90;53.63
2711;BME280;20721;47.402;8.550;2023-02-22T00:48:03;95986;;;8.89;53.61
2711;BME280;20721;47.402;8.550;2023-02-22T00:50:03;95982;;;8.87;53.66
2711;BME280;20721;47.402;8.550;2023-02-22T00:53:03;95985;;;8.85;53.66
2711;BME280;20721;47.402;8.550;2023-02-22T00:54:02;95988;;;8.82;53.72
2711;BME280;20721;47.402;8.550;2023-02-22T00:55:03;95989;;;8.81;53.74
2711;BME280;20721;47.402;8.550;2023-02-22T00:56:02;95986;;;8.80;53.72
2711;BME280;20721;47.402;8.550;2023-02-22T00:57:02;95988;;;8.79;53.84
2711;BME280;20721;47.402;8.550;2023-02-22T00:58:03;95990;;;8.80;53.81
2711;BME280;20721;47.402;8.550;2023-02-22T00:59:03;95985;;;8.79;53.85
2711;BME280;20721;47.402;8.550;2023-02-22T01:01:02;95984;;;8.80;53.82
2711;BME280;20721;47.402;8.550;2023-02-22T01:03:05;95983;;;8.82;53.73
2711;BME280;20721;47.402;8.550;2023-02-22T01:08:03;95975;;;8.79;53.82
2711;BME280;20721;47.402;8.550;2023-02-22T01:09:04;95977;;;8.78;53.68
2711;BME280;20721;47.402;8.550;2023-02-22T01:10:02;95973;;;8.75;53.70
2711;BME280;20721;47.402;8.550;2023-02-22T01:11:02;95974;;;8.72;53.79
2711;BME280;20721;47.402;8.550;2023-02-22T01:12:02;95975;;;8.70;53.81
2711;BME280;20721;47.402;8.550;2023-02-22T01:13:07;95971;;;8.66;53.79
2711;BME280;20721;47.402;8.550;2023-02-22T01:14:02;95970;;;8.61;53.85
2711;BME280;20721;47.402;8.550;2023-02-22T01:15:04;95966;;;8.55;53.92
2711;BME280;20721;47.402;8.550;2023-02-22T01:16:03;95966;;;8.52;54.08
2711;BME280;20721;47.402;8.550;2023-02-22T01:17:02;95962;;;8.51;54.11
2711;BME280;20721;47.402;8.550;2023-02-22T01:19:02;95967;;;8.46;54.19
2711;BME280;20721;47.402;8.550;2023-02-22T01:20:08;95968;;;8.44;54.28
2711;BME280;20721;47.402;8.550;2023-02-22T01:21:02;95966;;;8.42;54.47
2711;BME280;20721;47.402;8.550;2023-02-22T01:23:03;95966;;;8.43;54.43
2711;BME280;20721;47.402;8.550;2023-02-22T01:24:02;95969;;;8.42;54.49
2711;BME280;20721;47.402;8.550;2023-02-22T01:25:02;95965;;;8.38;54.45
2711;BME280;20721;47.402;8.550;2023-02-22T01:26:04;95968;;;8.39;54.51
2711;BME280;20721;47.402;8.550;2023-02-22T01:27:02;95966;;;8.37;54.60
2711;BME280;20721;47.402;8.550;2023-02-22T01:28:03;95967;;;8.38;54.53
2711;BME280;20721;47.402;8.550;2023-02-22T01:29:02;95962;;;8.35;54.59
2711;BME280;20721;47.402;8.550;2023-02-22T01:30:07;95963;;;8.34;54.67
2711;BME280;20721;47.402;8.550;2023-02-22T01:31:03;95965;;;8.29;54.81
2711;BME280;20721;47.402;8.550;2023-02-22T01:32:02;95965;;;8.27;54.96
2711;BME280;20721;47.402;8.550;2023-02-22T01:33:03;95961;;;8.25;54.85
2711;BME280;20721;47.402;8.550;2023-02-22T01:34:02;95957;;;8.20;54.90
2711;BME280;20721;47.402;8.550;2023-02-22T01:35:04;95957;;;8.17;55.07
2711;BME280;20721;47.402;8.550;2023-02-22T01:36:02;95957;;;8.15;55.11
2711;BME280;20721;47.402;8.550;2023-02-22T01:37:02;95954;;;8.16;55.12
2711;BME280;20721;47.402;8.550;2023-02-22T01:39:02;95956;;;8.17;55.20
2711;BME280;20721;47.402;8.550;2023-02-22T01:40:03;95953;;;8.18;55.25
2711;BME280;20721;47.402;8.550;2023-02-22T01:41:02;95956;;;8.19;55.17
2711;BME280;20721;47.402;8.550;2023-02-22T01:42:02;95956;;;8.23;55.04
2711;BME280;20721;47.402;8.550;2023-02-22T01:43:04;95953;;;8.28;54.92
2711;BME280;20721;47.402;8.550;2023-02-22T01:48:03;95958;;;8.30;54.74
2711;BME280;20721;47.402;8.550;2023-02-22T01:49:04;95954;;;8.27;54.71
2711;BME280;20721;47.402;8.550;2023-02-22T01:50:02;95953;;;8.25;54.71
2711;BME280;20721;47.402;8.550;2023-02-22T01:51:05;95952;;;8.24;54.87
2711;BME280;20721;47.402;8.550;2023-02-22T01:52:03;95950;;;8.22;54.83
2711;BME280;20721;47.402;8.550;2023-02-22T01:53:02;95950;;;8.21;54.97
2711;BME280;20721;47.402;8.550;2023-02-22T01:54:05;95952;;;8.20;55.02
2711;BME280;20721;47.402;8.550;2023-02-22T01:55:02;95952;;;8.21;55.09
2711;BME280;20721;47.402;8.550;2023-02-22T01:56:02;95955;;;8.20;55.17
2711;BME280;20721;47.402;8.550;2023-02-22T01:57:06;95950;;;8.22;55.22
2711;BME280;20721;47.402;8.550;2023-02-22T01:59:05;95951;;;8.23;55.22
2711;BME280;20721;47.402;8.550;2023-02-22T02:01:02;95950;;;8.24;55.23
2711;BME280;20721;47.402;8.550;2023-02-22T02:02:03;95952;;;8.28;55.28
2711;BME280;20721;47.402;8.550;2023-02-22T02:03:05;95952;;;8.30;55.36
2711;BME280;20721;47.402;8.550;2023-02-22T02:04:04;95947;;;8.31;55.32
2711;BME280;20721;47.402;8.550;2023-02-22T02:05:07;95955;;;8.30;55.31
2711;BME280;20721;47.402;8.550;2023-02-22T02:07:03;95952;;;8.31;55.61
2711;BME280;20721;47.402;8.550;2023-02-22T02:08:15;95949;;;8.33;55.57
2711;BME280;20721;47.402;8.550;2023-02-22T02:10:04;95948;;;8.38;55.48
2711;BME280;20721;47.402;8.550;2023-02-22T02:12:04;95948;;;8.39;55.63
2711;BME280;20721;47.402;8.550;2023-02-22T02:13:02;95948;;;8.40;55.63
2711;BME280;20721;47.402;8.550;2023-02-22T02:14:02;95949;;;8.43;55.54
2711;BME280;20721;47.402;8.550;2023-02-22T02:18:04;95948;;;8.42;55.61
2711;BME280;20721;47.402;8.550;2023-02-22T02:19:02;95948;;;8.41;55.52
2711;BME280;20721;47.402;8.550;2023-02-22T02:24:17;95942;;;8.35;55.64
2711;BME280;20721;47.402;8.550;2023-02-22T02:26:08;95937;;;8.34;55.62
2711;BME280;20721;47.402;8.550;2023-02-22T02:29:23;95939;;;8.30;55.67
2711;BME280;20721;47.402;8.550;2023-02-22T02:35:06;95934;;;8.25;55.96
2711;BME280;20721;47.402;8.550;2023-02-22T02:36:06;95931;;;8.23;56.00
2711;BME280;20721;47.402;8.550;2023-02-22T02:37:07;95932;;;8.17;56.50
2711;BME280;20721;47.402;8.550;2023-02-22T02:38:05;95934;;;8.14;56.54
2711;BME280;20721;47.402;8.550;2023-02-22T02:39:15;95931;;;8.12;56.56
2711;BME280;20721;47.402;8.550;2023-02-22T02:42:04;95925;;;8.13;55.84
2711;BME280;20721;47.402;8.550;2023-02-22T02:45:05;95922;;;8.08;55.47
2711;BME280;20721;47.402;8.550;2023-02-22T02:47:04;95921;;;8.07;55.32
2711;BME280;20721;47.402;8.550;2023-02-22T02:48:02;95921;;;8.05;55.40
2711;BME280;20721;47.402;8.550;2023-02-22T02:49:04;95920;;;8.03;55.42
2711;BME280;20721;47.402;8.550;2023-02-22T02:51:03;95918;;;7.95;55.59
2711;BME280;20721;47.402;8.550;2023-02-22T02:52:02;95918;;;7.94;55.64
2711;BME280;20721;47.402;8.550;2023-02-22T02:53:04;95916;;;7.92;55.61
2711;BME280;20721;47.402;8.550;2023-02-22T02:54:03;95915;;;7.87;55.67
2711;BME280;20721;47.402;8.550;2023-02-22T02:55:03;95914;;;7.81;55.85
2711;BME280;20721;47.402;8.550;2023-02-22T02:56:02;95915;;;7.79;55.97
2711;BME280;20721;47.402;8.550;2023-02-22T02:57:02;95915;;;7.81;55.92
2711;BME280;20721;47.402;8.550;2023-02-22T02:59:02;95913;;;7.77;55.87
2711;BME280;20721;47.402;8.550;2023-02-22T03:00:07;95911;;;7.75;55.97
2711;BME280;20721;47.402;8.550;2023-02-22T03:01:03;95912;;;7.72;56.04
2711;BME280;20721;47.402;8.550;2023-02-22T03:04:14;95907;;;7.70;56.20
2711;BME280;20721;47.402;8.550;2023-02-22T03:09:06;95907;;;7.67;56.18
2711;BME280;20721;47.402;8.550;2023-02-22T03:10:08;95906;;;7.66;56.17
2711;BME280;20721;47.402;8.550;2023-02-22T03:15:05;95904;;;7.62;56.11
2711;BME280;20721;47.402;8.550;2023-02-22T03:16:14;95905;;;7.59;56.16
2711;BME280;20721;47.402;8.550;2023-02-22T03:17:08;95900;;;7.55;56.16
2711;BME280;20721;47.402;8.550;2023-02-22T03:18:04;95901;;;7.54;56.17
2711;BME280;20721;47.402;8.550;2023-02-22T03:25:07;95901;;;7.53;56.38
2711;BME280;20721;47.402;8.550;2023-02-22T03:26:05;95898;;;7.51;56.33
2711;BME280;20721;47.402;8.550;2023-02-22T03:27:05;95899;;;7.49;56.46
2711;BME280;20721;47.402;8.550;2023-02-22T03:28:03;95899;;;7.50;56.37
2711;BME280;20721;47.402;8.550;2023-02-22T03:29:04;95899;;;7.51;56.34
2711;BME280;20721;47.402;8.550;2023-02-22T03:30:04;95900;;;7.50;56.32
2711;BME280;20721;47.402;8.550;2023-02-22T03:31:05;95898;;;7.51;56.29
2711;BME280;20721;47.402;8.550;2023-02-22T03:33:09;95895;;;7.52;56.44
2711;BME280;20721;47.402;8.550;2023-02-22T03:35:04;95898;;;7.51;56.30
2711;BME280;20721;47.402;8.550;2023-02-22T03:36:04;95897;;;7.52;56.42
2711;BME280;20721;47.402;8.550;2023-02-22T03:37:04;95897;;;7.53;56.35
2711;BME280;20721;47.402;8.550;2023-02-22T03:38:03;95900;;;7.54;56.39
2711;BME280;20721;47.402;8.550;2023-02-22T03:39:03;95899;;;7.53;56.44
2711;BME280;20721;47.402;8.550;2023-02-22T03:40:15;95900;;;7.55;56.39
2711;BME280;20721;47.402;8.550;2023-02-22T03:41:04;95896;;;7.56;56.17
2711;BME280;20721;47.402;8.550;2023-02-22T03:42:03;95898;;;7.53;56.07
2711;BME280;20721;47.402;8.550;2023-02-22T03:43:06;95897;;;7.50;56.05
2711;BME280;20721;47.402;8.550;2023-02-22T03:44:04;95898;;;7.49;56.03
2711;BME280;20721;47.402;8.550;2023-02-22T03:47:04;95899;;;7.47;56.24
2711;BME280;20721;47.402;8.550;2023-02-22T03:48:05;95901;;;7.46;56.29
2711;BME280;20721;47.402;8.550;2023-02-22T03:49:08;95902;;;7.43;56.33
2711;BME280;20721;47.402;8.550;2023-02-22T03:51:03;95899;;;7.41;56.48
2711;BME280;20721;47.402;8.550;2023-02-22T03:53:03;95900;;;7.42;56.48
2711;BME280;20721;47.402;8.550;2023-02-22T03:54:03;95902;;;7.43;56.46
2711;BME280;20721;47.402;8.550;2023-02-22T03:55:03;95901;;;7.44;56.45
2711;BME280;20721;47.402;8.550;2023-02-22T03:59:03;95899;;;7.47;56.50
2711;BME280;20721;47.402;8.550;2023-02-22T04:00:06;95900;;;7.50;56.45
2711;BME280;20721;47.402;8.550;2023-02-22T04:02:03;95899;;;7.52;56.43
2711;BME280;20721;47.402;8.550;2023-02-22T04:03:03;95897;;;7.53;56.47
2711;BME280;20721;47.402;8.550;2023-02-22T04:04:03;95896;;;7.54;56.42
2711;BME280;20721;47.402;8.550;2023-02-22T04:06:02;95898;;;7.53;56.33
2711;BME280;20721;47.402;8.550;2023-02-22T04:07:03;95901;;;7.51;56.42
2711;BME280;20721;47.402;8.550;2023-02-22T04:08:03;95896;;;7.50;56.53
2711;BME280;20721;47.402;8.550;2023-02-22T04:12:03;95895;;;7.51;56.58
2711;BME280;20721;47.402;8.550;2023-02-22T04:13:03;95896;;;7.54;56.50
2711;BME280;20721;47.402;8.550;2023-02-22T04:15:03;95896;;;7.56;56.39
2711;BME280;20721;47.402;8.550;2023-02-22T04:16:03;95894;;;7.58;56.27
2711;BME280;20721;47.402;8.550;2023-02-22T04:17:03;95894;;;7.60;56.16
2711;BME280;20721;47.402;8.550;2023-02-22T04:18:03;95890;;;7.61;56.03
2711;BME280;20721;47.402;8.550;2023-02-22T04:19:03;95892;;;7.60;56.07
2711;BME280;20721;47.402;8.550;2023-02-22T04:20:03;95894;;;7.64;56.08
2711;BME280;20721;47.402;8.550;2023-02-22T04:21:03;95896;;;7.67;56.07
2711;BME280;20721;47.402;8.550;2023-02-22T04:22:03;95893;;;7.70;55.71
2711;BME280;20721;47.402;8.550;2023-02-22T04:23:03;95889;;;7.71;55.68
2711;BME280;20721;47.402;8.550;2023-02-22T04:25:03;95890;;;7.66;55.72
2711;BME280;20721;47.402;8.550;2023-02-22T04:26:03;95888;;;7.63;55.70
2711;BME280;20721;47.402;8.550;2023-02-22T04:27:03;95890;;;7.62;55.71
2711;BME280;20721;47.402;8.550;2023-02-22T04:30:03;95891;;;7.59;55.72
2711;BME280;20721;47.402;8.550;2023-02-22T04:31:03;95887;;;7.58;55.76
2711;BME280;20721;47.402;8.550;2023-02-22T04:32:03;95892;;;7.57;55.69
2711;BME280;20721;47.402;8.550;2023-02-22T04:33:03;95894;;;7.54;55.76
2711;BME280;20721;47.402;8.550;2023-02-22T04:34:03;95894;;;7.51;55.88
2711;BME280;20721;47.402;8.550;2023-02-22T04:35:03;95892;;;7.49;55.98
2711;BME280;20721;47.402;8.550;2023-02-22T04:36:03;95888;;;7.46;56.03
2711;BME280;20721;47.402;8.550;2023-02-22T04:37:03;95892;;;7.44;56.18
2711;BME280;20721;47.402;8.550;2023-02-22T04:38:03;95889;;;7.45;56.21
2711;BME280;20721;47.402;8.550;2023-02-22T04:39:04;95889;;;7.46;55.98
2711;BME280;20721;47.402;8.550;2023-02-22T04:40:06;95891;;;7.51;55.93
2711;BME280;20721;47.402;8.550;2023-02-22T04:41:03;95892;;;7.50;55.92
2711;BME280;20721;47.402;8.550;2023-02-22T04:44:03;95895;;;7.49;56.00
2711;BME280;20721;47.402;8.550;2023-02-22T04:45:04;95892;;;7.47;56.10
2711;BME280;20721;47.402;8.550;2023-02-22T04:46:03;95890;;;7.46;56.13
2711;BME280;20721;47.402;8.550;2023-02-22T04:47:03;95890;;;7.48;55.99
2711;BME280;20721;47.402;8.550;2023-02-22T04:50:04;95892;;;7.49;56.04
2711;BME280;20721;47.402;8.550;2023-02-22T04:52:03;95892;;;7.47;56.03
2711;BME280;20721;47.402;8.550;2023-02-22T04:53:03;95894;;;7.46;56.04
2711;BME280;20721;47.402;8.550;2023-02-22T04:54:03;95891;;;7.45;56.01
2711;BME280;20721;47.402;8.550;2023-02-22T04:57:03;95893;;;7.43;55.96
2711;BME280;20721;47.402;8.550;2023-02-22T04:58:03;95894;;;7.38;56.03
2711;BME280;20721;47.402;8.550;2023-02-22T04:59:03;95890;;;7.36;56.13
2711;BME280;20721;47.402;8.550;2023-02-22T05:00:04;95893;;;7.35;56.07
2711;BME280;20721;47.402;8.550;2023-02-22T05:01:03;95893;;;7.33;55.92
2711;BME280;20721;47.402;8.550;2023-02-22T05:02:03;95891;;;7.30;56.05
2711;BME280;20721;47.402;8.550;2023-02-22T05:03:03;95891;;;7.28;56.06
2711;BME280;20721;47.402;8.550;2023-02-22T05:06:03;95890;;;7.27;56.18
2711;BME280;20721;47.402;8.550;2023-02-22T05:08:03;95891;;;7.26;56.13
2711;BME280;20721;47.402;8.550;2023-02-22T05:10:03;95888;;;7.28;56.19
2711;BME280;20721;47.402;8.550;2023-02-22T05:11:04;95890;;;7.29;56.16
2711;BME280;20721;47.402;8.550;2023-02-22T05:12:03;95887;;;7.32;56.06
2711;BME280;20721;47.402;8.550;2023-02-22T05:14:03;95891;;;7.29;56.03
2711;BME280;20721;47.402;8.550;2023-02-22T05:15:04;95890;;;7.27;56.16
2711;BME280;20721;47.402;8.550;2023-02-22T05:17:03;95885;;;7.26;56.20
2711;BME280;20721;47.402;8.550;2023-02-22T05:19:03;95887;;;7.27;56.21
2711;BME280;20721;47.402;8.550;2023-02-22T05:21:03;95889;;;7.30;56.04
2711;BME280;20721;47.402;8.550;2023-02-22T05:22:04;95889;;;7.33;55.93
2711;BME280;20721;47.402;8.550;2023-02-22T05:23:04;95888;;;7.34;55.91
2711;BME280;20721;47.402;8.550;2023-02-22T05:24:03;95889;;;7.35;55.94
2711;BME280;20721;47.402;8.550;2023-02-22T05:25:03;95889;;;7.37;55.87
2711;BME280;20721;47.402;8.550;2023-02-22T05:26:03;95888;;;7.38;55.77
2711;BME280;20721;47.402;8.550;2023-02-22T05:28:06;95890;;;7.39;55.78
2711;BME280;20721;47.402;8.550;2023-02-22T05:29:03;95891;;;7.41;55.78
2711;BME280;20721;47.402;8.550;2023-02-22T05:30:03;95887;;;7.43;55.69
2711;BME280;20721;47.402;8.550;2023-02-22T05:31:03;95888;;;7.41;55.66
2711;BME280;20721;47.402;8.550;2023-02-22T05:33:03;95887;;;7.40;55.71
2711;BME280;20721;47.402;8.550;2023-02-22T05:34:03;95888;;;7.38;55.62
2711;BME280;20721;47.402;8.550;2023-02-22T05:35:05;95888;;;7.36;55.67
2711;BME280;20721;47.402;8.550;2023-02-22T05:36:03;95888;;;7.33;55.81
2711;BME280;20721;47.402;8.550;2023-02-22T05:37:03;95887;;;7.31;55.86
2711;BME280;20721;47.402;8.550;2023-02-22T05:38:03;95886;;;7.28;55.91
2711;BME280;20721;47.402;8.550;2023-02-22T05:40:03;95883;;;7.27;55.93
2711;BME280;20721;47.402;8.550;2023-02-22T05:42:03;95883;;;7.28;55.90
2711;BME280;20721;47.402;8.550;2023-02-22T05:43:03;95882;;;7.27;55.91
2711;BME280;20721;47.402;8.550;2023-02-22T05:44:03;95881;;;7.26;56.00
2711;BME280;20721;47.402;8.550;2023-02-22T05:45:03;95888;;;7.25;56.00
2711;BME280;20721;47.402;8.550;2023-02-22T05:49:03;95882;;;7.23;56.04
2711;BME280;20721;47.402;8.550;2023-02-22T05:51:03;95880;;;7.24;56.12
2711;BME280;20721;47.402;8.550;2023-02-22T05:52:03;95883;;;7.26;56.03
2711;BME280;20721;47.402;8.550;2023-02-22T05:53:04;95884;;;7.25;56.10
2711;BME280;20721;47.402;8.550;2023-02-22T05:56:03;95878;;;7.26;56.02
2711;BME280;20721;47.402;8.550;2023-02-22T05:58:04;95879;;;7.25;55.96
2711;BME280;20721;47.402;8.550;2023-02-22T05:59:03;95880;;;7.23;55.99
2711;BME280;20721;47.402;8.550;2023-02-22T06:00:04;95881;;;7.22;56.11
2711;BME280;20721;47.402;8.550;2023-02-22T06:01:03;95879;;;7.24;56.05
2711;BME280;20721;47.402;8.550;2023-02-22T06:02:03;95882;;;7.26;56.02
2711;BME280;20721;47.402;8.550;2023-02-22T06:03:04;95881;;;7.27;55.88
2711;BME280;20721;47.402;8.550;2023-02-22T06:06:04;95882;;;7.24;56.00
2711;BME280;20721;47.402;8.550;2023-02-22T06:07:03;95880;;;7.26;55.98
2711;BME280;20721;47.402;8.550;2023-02-22T06:08:03;95879;;;7.28;55.95
2711;BME280;20721;47.402;8.550;2023-02-22T06:09:03;95880;;;7.27;55.99
2711;BME280;20721;47.402;8.550;2023-02-22T06:10:03;95879;;;7.25;56.06
2711;BME280;20721;47.402;8.550;2023-02-22T06:11:03;95878;;;7.23;56.11
2711;BME280;20721;47.402;8.550;2023-02-22T06:13:03;95882;;;7.22;56.12
2711;BME280;20721;47.402;8.550;2023-02-22T06:14:03;95880;;;7.18;56.21
2711;BME280;20721;47.402;8.550;2023-02-22T06:17:04;95883;;;7.17;56.35
2711;BME280;20721;47.402;8.550;2023-02-22T06:18:03;95883;;;7.19;56.27
2711;BME280;20721;47.402;8.550;2023-02-22T06:19:03;95881;;;7.21;56.20
2711;BME280;20721;47.402;8.550;2023-02-22T06:20:03;95887;;;7.20;56.29
2711;BME280;20721;47.402;8.550;2023-02-22T06:24:03;95884;;;7.19;56.35
2711;BME280;20721;47.402;8.550;2023-02-22T06:25:03;95886;;;7.20;56.32
2711;BME280;20721;47.402;8.550;2023-02-22T06:26:03;95880;;;7.19;56.17
2711;BME280;20721;47.402;8.550;2023-02-22T06:27:03;95882;;;7.16;56.13
2711;BME280;20721;47.402;8.550;2023-02-22T06:28:03;95885;;;7.11;56.33
2711;BME280;20721;47.402;8.550;2023-02-22T06:29:04;95884;;;7.08;56.42
2711;BME280;20721;47.402;8.550;2023-02-22T06:30:03;95884;;;7.07;56.38
2711;BME280;20721;47.402;8.550;2023-02-22T06:31:03;95885;;;7.05;56.44
2711;BME280;20721;47.402;8.550;2023-02-22T06:32:03;95884;;;7.04;56.44
2711;BME280;20721;47.402;8.550;2023-02-22T06:33:03;95883;;;7.03;56.49
2711;BME280;20721;47.402;8.550;2023-02-22T06:34:03;95882;;;7.01;56.59
2711;BME280;20721;47.402;8.550;2023-02-22T06:35:03;95886;;;7.02;56.67
2711;BME280;20721;47.402;8.550;2023-02-22T06:36:04;95890;;;7.03;56.67
2711;BME280;20721;47.402;8.550;2023-02-22T06:37:03;95888;;;7.04;56.69
2711;BME280;20721;47.402;8.550;2023-02-22T06:39:03;95889;;;7.05;56.64
2711;BME280;20721;47.402;8.550;2023-02-22T06:40:06;95887;;;7.06;56.56
2711;BME280;20721;47.402;8.550;2023-02-22T06:41:03;95888;;;7.07;56.58
2711;BME280;20721;47.402;8.550;2023-02-22T06:42:03;95892;;;7.09;56.60
2711;BME280;20721;47.402;8.550;2023-02-22T06:43:03;95890;;;7.11;56.94
2711;BME280;20721;47.402;8.550;2023-02-22T06:44:04;95896;;;7.13;56.94
2711;BME280;20721;47.402;8.550;2023-02-22T06:45:03;95894;;;7.16;56.57
2711;BME280;20721;47.402;8.550;2023-02-22T06:46:03;95893;;;7.19;56.42
2711;BME280;20721;47.402;8.550;2023-02-22T06:47:03;95895;;;7.20;56.38
2711;BME280;20721;47.402;8.550;2023-02-22T06:48:03;95896;;;7.22;56.40
2711;BME280;20721;47.402;8.550;2023-02-22T06:49:03;95897;;;7.20;56.25
2711;BME280;20721;47.402;8.550;2023-02-22T06:50:04;95898;;;7.16;56.37
2711;BME280;20721;47.402;8.550;2023-02-22T06:51:03;95901;;;7.15;56.55
2711;BME280;20721;47.402;8.550;2023-02-22T06:52:04;95903;;;7.16;56.67
2711;BME280;20721;47.402;8.550;2023-02-22T06:53:03;95900;;;7.18;56.63
2711;BME280;20721;47.402;8.550;2023-02-22T06:54:03;95902;;;7.21;56.52
2711;BME280;20721;47.402;8.550;2023-02-22T06:55:03;95903;;;7.23;56.48
2711;BME280;20721;47.402;8.550;2023-02-22T06:56:03;95901;;;7.27;56.36
2711;BME280;20721;47.402;8.550;2023-02-22T06:57:03;95900;;;7.29;56.25
2711;BME280;20721;47.402;8.550;2023-02-22T06:58:03;95902;;;7.30;56.22
2711;BME280;20721;47.402;8.550;2023-02-22T07:00:03;95905;;;7.32;56.17
2711;BME280;20721;47.402;8.550;2023-02-22T07:01:05;95906;;;7.34;56.14
2711;BME280;20721;47.402;8.550;2023-02-22T07:02:03;95909;;;7.37;56.13
2711;BME280;20721;47.402;8.550;2023-02-22T07:03:03;95907;;;7.41;56.10
2711;BME280;20721;47.402;8.550;2023-02-22T07:04:03;95908;;;7.44;56.06
2711;BME280;20721;47.402;8.550;2023-02-22T07:05:03;95907;;;7.49;55.96
2711;BME280;20721;47.402;8.550;2023-02-22T07:06:03;95909;;;7.52;55.83
2711;BME280;20721;47.402;8.550;2023-02-22T07:07:03;95906;;;7.55;55.74
2711;BME280;20721;47.402;8.550;2023-02-22T07:08:04;95908;;;7.57;55.74
2711;BME280;20721;47.402;8.550;2023-02-22T07:09:03;95903;;;7.61;55.77
2711;BME280;20721;47.402;8.550;2023-02-22T07:10:04;95905;;;7.66;55.75
2711;BME280;20721;47.402;8.550;2023-02-22T07:11:03;95901;;;7.72;55.71
2711;BME280;20721;47.402;8.550;2023-02-22T07:12:03;95902;;;7.78;55.68
2711;BME280;20721;47.402;8.550;2023-02-22T07:13:04;95904;;;7.85;55.71
2711;BME280;20721;47.402;8.550;2023-02-22T07:14:03;95904;;;7.91;55.58
2711;BME280;20721;47.402;8.550;2023-02-22T07:15:03;95906;;;8.00;55.60
2711;BME280;20721;47.402;8.550;2023-02-22T07:16:03;95907;;;8.06;55.62
2711;BME280;20721;47.402;8.550;2023-02-22T07:17:03;95905;;;8.12;55.76
2711;BME280;20721;47.402;8.550;2023-02-22T07:18:03;95906;;;8.19;55.70
2711;BME280;20721;47.402;8.550;2023-02-22T07:19:03;95907;;;8.22;55.80
2711;BME280;20721;47.402;8.550;2023-02-22T07:20:03;95904;;;8.24;55.73
2711;BME280;20721;47.402;8.550;2023-02-22T07:21:03;95905;;;8.27;55.76
2711;BME280;20721;47.402;8.550;2023-02-22T07:22:05;95907;;;8.32;55.77
2711;BME280;20721;47.402;8.550;2023-02-22T07:23:03;95908;;;8.38;55.62
2711;BME280;20721;47.402;8.550;2023-02-22T07:24:05;95906;;;8.44;55.60
2711;BME280;20721;47.402;8.550;2023-02-22T07:25:05;95908;;;8.51;55.46
2711;BME280;20721;47.402;8.550;2023-02-22T07:26:04;95908;;;8.58;55.41
2711;BME280;20721;47.402;8.550;2023-02-22T07:27:03;95909;;;8.67;55.25
2711;BME280;20721;47.402;8.550;2023-02-22T07:28:03;95911;;;8.79;54.95
2711;BME280;20721;47.402;8.550;2023-02-22T07:29:03;95910;;;8.89;54.68
2711;BME280;20721;47.402;8.550;2023-02-22T07:30:04;95911;;;8.98;54.46
2711;BME280;20721;47.402;8.550;2023-02-22T07:31:03;95912;;;9.08;54.27
2711;BME280;20721;47.402;8.550;2023-02-22T07:32:03;95910;;;9.21;53.92
2711;BME280;20721;47.402;8.550;2023-02-22T07:33:05;95913;;;9.33;53.53
2711;BME280;20721;47.402;8.550;2023-02-22T07:34:03;95909;;;9.36;53.11
2711;BME280;20721;47.402;8.550;2023-02-22T07:35:03;95906;;;9.41;53.18
2711;BME280;20721;47.402;8.550;2023-02-22T07:36:04;95904;;;9.45;53.03
2711;BME280;20721;47.402;8.550;2023-02-22T07:37:03;95903;;;9.50;52.95
2711;BME280;20721;47.402;8.550;2023-02-22T07:38:04;95903;;;9.59;52.86
2711;BME280;20721;47.402;8.550;2023-02-22T07:39:03;95905;;;9.76;52.56
2711;BME280;20721;47.402;8.550;2023-02-22T07:40:03;95904;;;10.35;51.43
2711;BME280;20721;47.402;8.550;2023-02-22T07:41:03;95901;;;10.42;51.02